aviador You're here:

EICK Decoded Metar

CORK in IRELAND
Report Time2018-01-17 05:00:00
UTC Time2018-01-17 05:15:24
Flight Rules vfr VFR
Wind280° at 20 kt
W.Decomp.*RWY 25: 16.4 kt HW 11.5 kt RCW
RWY 35: 8.5 kt HW 18.1 kt LCW
W.Rank280° ranks 10
Current wind is above 280° avg. (9.3)
Visibility9999 m
Phenomena:N/A
Clouds:Few CB 018 Hf
Scattered 023 Hf
Broken 040 Hf
Expected CloudBase > 1,200 ft AGL from Temp-Dew spread
Ceiling4,000 ft
Temp03°C (ISA -11)
Dew Point00°C (81% RH)
AAT-6.2°C
QNH1008 hPa
Density Alt-577 ft
Elevation502 ft
Report Wrong Elevation
Raw Report
METAR EICK 170500Z 28020KT 9999 FEW018CB SCT023 BKN040 03/00 Q1008
NOSIG=

Extra information for EICK:More info

Metar Taf Metar & Taf Last 4 Metars F.Rules Stats Wind Profile Meteogram Temp Stats Airport Information Weather charts Add Link Nearby VenuesMetar ALERT Operation Metar Decoded Social comments